Flight Track Log - Related Links

Times and Time Zones

All times are in EDT time to prevent confusion due to time zone crossing. See the N2674T flight status page for this flight to view local times or setup timezone preferences in your user account.

Time Position Orientation Groundspeed Altitude Reporting Facility
EDT Latitude Longitude Course Direction KTS MPH feet Rate Location/Type
Fri 10:23:00 AM 34.3204 -79.9825 125° Southeast  Level FlightAware Approximate
Fri 10:24:00 AM 34.3091 -79.9631 125° Southeast  Level FlightAware Approximate
Fri 10:25:00 AM 34.2979 -79.9438 125° Southeast  Level FlightAware Approximate
Fri 10:26:00 AM 34.2866 -79.9245 125° Southeast  Level FlightAware Approximate
Fri 10:27:00 AM 34.2754 -79.9053 125° Southeast  Level FlightAware Approximate
Fri 10:28:00 AM 34.2641 -79.8860 125° Southeast  Level FlightAware Approximate
Fri 10:29:00 AM 34.2528 -79.8667 125° Southeast  Level FlightAware Approximate
Fri 10:30:00 AM 34.2416 -79.8474 125° Southeast  Level FlightAware Approximate
Fri 10:31:00 AM 34.2314 -79.8274 112° Southeast  Level FlightAware Approximate
Fri 10:32:00 AM 34.2241 -79.8055 112° Southeast  Level FlightAware Approximate
Fri 10:33:00 AM 34.2168 -79.7836 112° Southeast  Level FlightAware Approximate
Fri 10:34:00 AM 34.2067 -79.7634 121° Southeast  Level FlightAware Approximate
Fri 10:35:00 AM 34.1966 -79.7432 121° Southeast  Level FlightAware Approximate
Fri 10:36:00 AM 34.1865 -79.7230 121° Southeast  Level FlightAware Approximate
Fri 10:37:00 AM 34.1833 -79.7167 121° Southeast  Level FlightAware Approximate
Fri 10:38:00 AM 34.1854 -79.7239 121° Southeast  Level Estimated
Fri 10:39:00 AM 34.1833 -79.7167 121° Southeast  Level FlightAware Approximate
Fri 10:40:00 AM 34.1854 -79.7239 121° Southeast  Level Estimated
Fri 10:41:00 AM 34.1833 -79.7167 121° Southeast  Level FlightAware Approximate
Fri 10:42:00 AM 34.1854 -79.7239 121° Southeast  Level Estimated
Fri 10:43:00 AM 34.1833 -79.7167 121° Southeast  Level FlightAware Approximate
Fri 10:44:00 AM 34.1854 -79.7239 121° Southeast  Level Estimated
Fri 10:45:00 AM 34.1833 -79.7167 121° Southeast  Level FlightAware Approximate
Fri 10:46:00 AM 34.1854 -79.7239 121° Southeast  Level Estimated
Fri 10:47:00 AM 34.1833 -79.7167 121° Southeast  Level FlightAware Approximate

Login

Don't have an account? Register now (free) for customized features, flight alerts, and more!